createdAt,value
2022-08-03T00:00:45.322Z,101463.44
2022-08-03T00:03:14.931Z,101458.38
2022-08-03T00:06:04.626Z,101465.59
2022-08-03T00:08:34.460Z,101455.63
2022-08-03T00:11:10.676Z,101462.03
2022-08-03T00:13:40.128Z,101462.41
2022-08-03T00:16:13.394Z,101454.84
2022-08-03T00:18:43.040Z,101466.22
2022-08-03T00:21:12.560Z,101459.88
2022-08-03T00:23:52.233Z,101452.25
2022-08-03T00:26:23.658Z,101453.72
2022-08-03T00:28:53.542Z,101448.38
2022-08-03T00:31:39.861Z,101458.25
2022-08-03T00:34:12.589Z,101454.28
2022-08-03T00:36:42.755Z,101451.13
2022-08-03T00:39:12.232Z,101447.75
2022-08-03T00:41:43.371Z,101454.59
2022-08-03T00:44:12.756Z,101462.41
2022-08-03T00:46:42.059Z,101462.91
2022-08-03T00:49:11.635Z,101453.50
2022-08-03T00:51:44.154Z,101444.63
2022-08-03T00:54:13.768Z,101448.25
2022-08-03T00:56:59.647Z,101444.78
2022-08-03T00:59:30.462Z,101442.09
2022-08-03T01:02:00.456Z,101450.41
2022-08-03T01:04:30.314Z,101437.84
2022-08-03T01:07:44.059Z,101445.94
2022-08-03T01:10:31.662Z,101444.84
2022-08-03T01:13:05.057Z,101434.88
2022-08-03T01:15:46.731Z,101439.31
2022-08-03T01:18:22.982Z,101443.16
2022-08-03T01:20:58.047Z,101436.81
2022-08-03T01:23:35.779Z,101434.94
2022-08-03T01:26:35.861Z,101439.94
2022-08-03T01:29:30.342Z,101445.56
2022-08-03T01:33:02.882Z,101450.84
2022-08-03T01:35:03.107Z,101438.63
2022-08-03T01:37:42.410Z,101441.19
2022-08-03T01:40:13.551Z,101433.53
2022-08-03T01:42:44.322Z,101438.00
2022-08-03T01:45:17.957Z,101435.81
2022-08-03T01:47:52.427Z,101435.00
2022-08-03T01:50:25.256Z,101432.31
2022-08-03T01:52:55.793Z,101437.44
2022-08-03T01:55:27.503Z,101435.06
2022-08-03T01:58:05.490Z,101434.25
2022-08-03T02:00:39.957Z,101421.41
2022-08-03T02:03:11.218Z,101426.81
2022-08-03T02:05:42.644Z,101426.81
2022-08-03T02:08:14.687Z,101424.44
2022-08-03T02:10:46.252Z,101413.00
2022-08-03T02:13:19.588Z,101423.47
2022-08-03T02:15:49.771Z,101418.53
2022-08-03T02:18:21.314Z,101427.63
2022-08-03T02:20:52.665Z,101428.88
2022-08-03T02:23:22.170Z,101426.19
2022-08-03T02:25:55.874Z,101425.88
2022-08-03T02:28:32.187Z,101420.03
2022-08-03T02:31:05.480Z,101429.91
2022-08-03T02:33:39.126Z,101419.22
2022-08-03T02:36:10.674Z,101426.72
2022-08-03T02:38:43.948Z,101413.69
2022-08-03T02:41:20.622Z,101417.03
2022-08-03T02:44:06.345Z,101411.47
2022-08-03T02:46:41.180Z,101405.13
2022-08-03T02:49:49.669Z,101407.72
2022-08-03T02:52:04.501Z,101408.66
2022-08-03T02:54:36.492Z,101402.31
2022-08-03T02:57:06.182Z,101409.63
2022-08-03T02:59:37.015Z,101409.63
2022-08-03T03:02:07.304Z,101408.84
2022-08-03T03:04:38.310Z,101408.22
2022-08-03T03:07:18.384Z,101398.06
2022-08-03T03:09:48.213Z,101403.28
2022-08-03T03:12:19.004Z,101404.88
2022-08-03T03:14:48.340Z,101407.44
2022-08-03T03:17:20.347Z,101403.28
2022-08-03T03:19:52.404Z,101409.00
2022-08-03T03:22:22.834Z,101403.94
2022-08-03T03:24:54.723Z,101402.84
2022-08-03T03:27:24.994Z,101397.25
2022-08-03T03:29:57.036Z,101396.63
2022-08-03T03:32:26.442Z,101402.34
2022-08-03T03:34:59.234Z,101413.78
2022-08-03T03:37:31.625Z,101395.06
2022-08-03T03:40:01.161Z,101401.88
2022-08-03T03:42:30.643Z,101401.41
2022-08-03T03:45:00.206Z,101398.53
2022-08-03T03:47:32.268Z,101403.16
2022-08-03T03:50:02.827Z,101403.31
2022-08-03T03:52:32.235Z,101401.75
2022-08-03T03:55:01.929Z,101400.94
2022-08-03T03:57:32.194Z,101404.13
2022-08-03T04:00:01.567Z,101406.19
2022-08-03T04:02:33.688Z,101409.03
2022-08-03T04:05:15.593Z,101399.34
2022-08-03T04:08:12.975Z,101400.16
2022-08-03T04:10:56.832Z,101397.78
2022-08-03T04:13:27.847Z,101399.22
2022-08-03T04:16:00.128Z,101402.69
2022-08-03T04:18:32.981Z,101397.94
2022-08-03T04:21:06.458Z,101401.13
2022-08-03T04:23:38.514Z,101408.41
2022-08-03T04:26:10.753Z,101407.63
2022-08-03T04:28:42.358Z,101407.47
2022-08-03T04:31:12.404Z,101402.69
2022-08-03T04:33:43.010Z,101403.31
2022-08-03T04:36:17.612Z,101408.25
2022-08-03T04:39:05.492Z,101400.94
2022-08-03T04:42:07.065Z,101412.38
2022-08-03T04:44:28.820Z,101405.88
2022-08-03T04:46:59.609Z,101411.59
2022-08-03T04:49:29.707Z,101413.03
2022-08-03T04:51:59.511Z,101415.41
2022-08-03T04:54:28.883Z,101416.03
2022-08-03T04:56:58.354Z,101415.88
2022-08-03T04:59:27.715Z,101420.63
2022-08-03T05:01:57.527Z,101420.16
2022-08-03T05:04:26.937Z,101409.97
2022-08-03T05:06:56.371Z,101421.09
2022-08-03T05:09:46.015Z,101424.25
2022-08-03T05:12:17.574Z,101429.00
2022-08-03T05:14:47.106Z,101425.47
2022-08-03T05:17:16.480Z,101422.94
2022-08-03T05:19:45.869Z,101418.63
2022-08-03T05:22:15.494Z,101425.75
2022-08-03T05:24:44.983Z,101428.75
2022-08-03T05:27:19.342Z,101428.88
2022-08-03T05:29:49.551Z,101429.81
2022-08-03T05:32:20.165Z,101434.88
2022-08-03T05:34:49.869Z,101435.00
2022-08-03T05:37:19.219Z,101430.22
2022-08-03T05:39:48.737Z,101423.81
2022-08-03T05:42:18.714Z,101429.16
2022-08-03T05:44:48.083Z,101429.31
2022-08-03T05:47:17.415Z,101427.66
2022-08-03T05:49:46.720Z,101435.91
2022-08-03T05:52:17.664Z,101431.06
2022-08-03T05:54:57.324Z,101435.47
2022-08-03T05:57:28.318Z,101435.09
2022-08-03T05:59:58.621Z,101434.84
2022-08-03T06:02:30.175Z,101443.84
2022-08-03T06:04:59.600Z,101433.56
2022-08-03T06:07:29.007Z,101444.94
2022-08-03T06:10:36.061Z,101442.81
2022-08-03T06:12:49.391Z,101440.75
2022-08-03T06:15:18.803Z,101447.47
2022-08-03T06:17:50.310Z,101452.81
2022-08-03T06:20:21.517Z,101454.91
2022-08-03T06:23:00.009Z,101449.34
2022-08-03T06:25:30.886Z,101449.25
2022-08-03T06:28:01.035Z,101452.31
2022-08-03T06:30:30.528Z,101455.13
2022-08-03T06:32:59.814Z,101457.97
2022-08-03T06:35:29.726Z,101458.94
2022-08-03T06:37:59.015Z,101457.56
2022-08-03T06:40:31.509Z,101460.31
2022-08-03T06:43:02.415Z,101469.09
2022-08-03T06:45:33.236Z,101457.75
2022-08-03T06:48:07.385Z,101464.19
2022-08-03T06:50:38.347Z,101461.44
2022-08-03T06:53:09.100Z,101459.97
2022-08-03T06:55:52.396Z,101463.41
2022-08-03T06:58:23.650Z,101465.75
2022-08-03T07:00:52.998Z,101474.13
2022-08-03T07:03:22.394Z,101464.13
2022-08-03T07:05:52.087Z,101476.34
2022-08-03T07:08:34.169Z,101465.47
2022-08-03T07:11:04.066Z,101475.78
2022-08-03T07:13:33.714Z,101476.09
2022-08-03T07:16:03.179Z,101468.81
2022-08-03T07:18:32.524Z,101478.28
2022-08-03T07:21:01.959Z,101473.31
2022-08-03T07:23:31.253Z,101479.34
2022-08-03T07:26:00.547Z,101478.03
2022-08-03T07:28:30.034Z,101480.63
2022-08-03T07:31:00.183Z,101481.91
2022-08-03T07:33:29.699Z,101489.75
2022-08-03T07:35:58.987Z,101485.97
2022-08-03T07:38:29.006Z,101490.09
2022-08-03T07:40:58.404Z,101486.34
2022-08-03T07:43:27.701Z,101493.00
2022-08-03T07:45:57.069Z,101488.88
2022-08-03T07:48:26.440Z,101491.06
2022-08-03T07:50:55.877Z,101486.88
2022-08-03T07:53:25.271Z,101485.16
2022-08-03T07:55:54.633Z,101482.66
2022-08-03T07:58:24.680Z,101478.09
2022-08-03T08:00:54.431Z,101484.94
2022-08-03T08:03:24.548Z,101484.75
2022-08-03T08:05:53.937Z,101487.81
2022-08-03T08:08:23.667Z,101488.50
2022-08-03T08:10:58.405Z,101489.63
2022-08-03T08:13:28.539Z,101485.47
2022-08-03T08:15:57.907Z,101483.00
2022-08-03T08:18:29.569Z,101486.94
2022-08-03T08:20:58.935Z,101472.69
2022-08-03T08:23:42.032Z,101479.81
2022-08-03T08:26:13.352Z,101480.59
2022-08-03T08:28:42.839Z,101486.22
2022-08-03T08:31:12.278Z,101494.06
2022-08-03T08:34:03.253Z,101485.78
2022-08-03T08:36:32.131Z,101487.50
2022-08-03T08:39:01.572Z,101481.53
2022-08-03T08:41:33.834Z,101482.63
2022-08-03T08:44:04.137Z,101485.31
2022-08-03T08:46:36.008Z,101481.78
2022-08-03T08:49:05.556Z,101485.31
2022-08-03T08:51:54.434Z,101479.13
2022-08-03T08:54:28.955Z,101480.34
2022-08-03T08:57:16.263Z,101492.63
2022-08-03T08:59:57.350Z,101486.41
2022-08-03T09:02:28.403Z,101485.91
2022-08-03T09:04:58.170Z,101487.44
2022-08-03T09:07:27.738Z,101485.91
2022-08-03T09:10:08.298Z,101482.41
2022-08-03T09:12:45.819Z,101484.34
2022-08-03T09:15:24.510Z,101485.25
2022-08-03T09:17:58.723Z,101488.13
2022-08-03T09:20:31.475Z,101485.47
2022-08-03T09:23:19.133Z,101481.06
2022-08-03T09:26:01.777Z,101484.88
2022-08-03T09:29:00.005Z,101476.16
2022-08-03T09:31:35.857Z,101483.97
2022-08-03T09:34:08.169Z,101482.63
2022-08-03T09:36:38.481Z,101476.63
2022-08-03T09:39:37.520Z,101478.53
2022-08-03T09:42:23.837Z,101490.16
2022-08-03T09:44:54.948Z,101486.31
2022-08-03T09:47:32.509Z,101483.50
2022-08-03T09:50:05.228Z,101477.97
2022-08-03T09:52:49.906Z,101481.97
2022-08-03T09:56:33.845Z,101474.59
2022-08-03T09:58:17.473Z,101479.19
2022-08-03T10:01:07.978Z,101487.19
2022-08-03T10:04:04.389Z,101482.44
2022-08-03T10:06:35.004Z,101483.22
2022-08-03T10:09:12.778Z,101476.78
2022-08-03T10:11:43.246Z,101481.16
2022-08-03T10:14:19.213Z,101477.31
2022-08-03T10:16:49.903Z,101477.63
2022-08-03T10:19:19.945Z,101472.09
2022-08-03T10:21:53.761Z,101474.09
2022-08-03T10:24:27.933Z,101471.06
2022-08-03T10:27:05.667Z,101467.66
2022-08-03T10:29:43.474Z,101469.56
2022-08-03T10:32:31.654Z,101466.00
2022-08-03T10:35:19.575Z,101459.59
2022-08-03T10:38:05.991Z,101458.78
2022-08-03T10:40:48.500Z,101463.59
2022-08-03T10:43:35.499Z,101447.63
2022-08-03T10:46:08.609Z,101453.69
2022-08-03T10:48:39.319Z,101448.06
2022-08-03T10:51:09.900Z,101443.47
2022-08-03T10:53:44.114Z,101445.53
2022-08-03T10:56:54.608Z,101454.75
2022-08-03T10:59:49.608Z,101449.31
2022-08-03T11:02:19.551Z,101436.03
2022-08-03T11:04:48.997Z,101436.47
2022-08-03T11:07:18.617Z,101441.06
2022-08-03T11:09:51.154Z,101432.53
2022-08-03T11:12:30.334Z,101437.69
2022-08-03T11:15:09.634Z,101431.28
2022-08-03T11:17:46.561Z,101427.28
2022-08-03T11:20:51.485Z,101420.91
2022-08-03T11:24:05.073Z,101424.31
2022-08-03T11:26:13.326Z,101439.66
2022-08-03T11:28:46.952Z,101425.66
2022-08-03T11:31:49.922Z,101427.97
2022-08-03T11:34:16.628Z,101426.06
2022-08-03T11:37:28.555Z,101422.97
2022-08-03T11:40:02.712Z,101422.16
2022-08-03T11:42:32.282Z,101429.94
2022-08-03T11:45:03.299Z,101421.94
2022-08-03T11:47:33.032Z,101423.31
2022-08-03T11:50:03.848Z,101414.34
2022-08-03T11:52:42.622Z,101413.22
2022-08-03T11:55:17.470Z,101419.91
2022-08-03T11:59:15.142Z,101416.88
2022-08-03T12:00:36.829Z,101416.31
2022-08-03T12:03:12.189Z,101415.16
2022-08-03T12:05:51.880Z,101416.94
2022-08-03T12:08:33.829Z,101421.91
2022-08-03T12:11:07.329Z,101426.16
2022-08-03T12:14:08.861Z,101414.44
2022-08-03T12:16:36.687Z,101423.81
2022-08-03T12:19:08.333Z,101423.44
2022-08-03T12:21:37.574Z,101426.16
2022-08-03T12:24:08.405Z,101419.53
2022-08-03T12:26:59.497Z,101421.13
2022-08-03T12:29:29.834Z,101425.03
2022-08-03T12:31:59.415Z,101429.59
2022-08-03T12:34:48.501Z,101423.56
2022-08-03T12:37:24.025Z,101418.84
2022-08-03T12:40:02.475Z,101426.44
2022-08-03T12:42:42.315Z,101421.97
2022-08-03T12:45:25.657Z,101423.31
2022-08-03T12:48:00.434Z,101421.94
2022-08-03T12:50:32.175Z,101423.13
2022-08-03T12:53:04.731Z,101429.19
2022-08-03T12:55:56.575Z,101428.63
2022-08-03T12:58:35.602Z,101422.78
2022-08-03T13:01:09.136Z,101420.44
2022-08-03T13:03:50.143Z,101425.97
2022-08-03T13:06:23.765Z,101426.94
2022-08-03T13:09:05.386Z,101424.97
2022-08-03T13:11:55.523Z,101419.53
2022-08-03T13:14:24.143Z,101412.69
2022-08-03T13:16:53.471Z,101416.34
2022-08-03T13:19:22.780Z,101415.56
2022-08-03T13:21:53.887Z,101411.66
2022-08-03T13:24:34.967Z,101405.66
2022-08-03T13:28:02.148Z,101408.59
2022-08-03T13:29:56.267Z,101409.13
2022-08-03T13:32:26.051Z,101404.03
2022-08-03T13:34:57.628Z,101407.19
2022-08-03T13:37:27.428Z,101406.47
2022-08-03T13:39:59.147Z,101410.75
2022-08-03T13:42:30.631Z,101410.34
2022-08-03T13:45:00.121Z,101396.28
2022-08-03T13:47:30.114Z,101404.47
2022-08-03T13:50:02.494Z,101405.66
2022-08-03T13:52:34.696Z,101404.09
2022-08-03T13:55:06.247Z,101393.56
2022-08-03T13:58:02.399Z,101399.41
2022-08-03T14:00:29.355Z,101402.94
2022-08-03T14:03:12.660Z,101395.91
2022-08-03T14:05:43.912Z,101397.09
2022-08-03T14:08:14.708Z,101394.34
2022-08-03T14:10:46.671Z,101393.97
2022-08-03T14:13:17.996Z,101397.09
2022-08-03T14:15:49.776Z,101396.09
2022-08-03T14:18:27.609Z,101387.31
2022-08-03T14:21:05.007Z,101386.94
2022-08-03T14:23:36.107Z,101380.66
2022-08-03T14:26:05.538Z,101387.72
2022-08-03T14:28:34.888Z,101386.53
2022-08-03T14:31:08.250Z,101382.06
2022-08-03T14:33:45.532Z,101371.69
2022-08-03T14:36:14.957Z,101371.09
2022-08-03T14:38:44.973Z,101376.00
2022-08-03T14:41:19.973Z,101374.78
2022-08-03T14:44:01.068Z,101366.19
2022-08-03T14:46:32.201Z,101357.63
2022-08-03T14:50:29.227Z,101350.22
2022-08-03T14:51:53.816Z,101349.81
2022-08-03T14:54:23.992Z,101341.25
2022-08-03T14:56:53.375Z,101349.84
2022-08-03T14:59:22.795Z,101342.03
2022-08-03T15:02:05.545Z,101347.91
2022-08-03T15:04:37.220Z,101336.22
2022-08-03T15:07:06.578Z,101339.34
2022-08-03T15:09:36.294Z,101334.63
2022-08-03T15:12:05.816Z,101333.84
2022-08-03T15:14:35.515Z,101327.41
2022-08-03T15:17:07.866Z,101332.06
2022-08-03T15:20:03.917Z,101329.09
2022-08-03T15:22:34.359Z,101320.31
2022-08-03T15:26:31.914Z,101336.13
2022-08-03T15:28:03.921Z,101327.59
2022-08-03T15:30:37.017Z,101329.53
2022-08-03T15:33:06.487Z,101330.13
2022-08-03T15:35:35.847Z,101334.94
2022-08-03T15:38:09.261Z,101320.13
2022-08-03T15:40:39.255Z,101325.97
2022-08-03T15:43:09.123Z,101324.78
2022-08-03T15:45:41.921Z,101320.09
2022-08-03T15:48:13.238Z,101315.22
2022-08-03T15:50:43.813Z,101318.91
2022-08-03T15:53:13.193Z,101316.91
2022-08-03T15:55:43.805Z,101316.53
2022-08-03T15:59:10.361Z,101307.91
2022-08-03T16:01:04.393Z,101306.72
2022-08-03T16:03:34.701Z,101311.44
2022-08-03T16:06:05.936Z,101317.88
2022-08-03T16:08:35.536Z,101308.69
2022-08-03T16:11:04.886Z,101310.25
2022-08-03T16:14:13.749Z,101307.97
2022-08-03T16:16:23.636Z,101309.13
2022-08-03T16:18:53.025Z,101299.38
2022-08-03T16:21:22.426Z,101302.47
2022-08-03T16:23:56.759Z,101299.13
2022-08-03T16:26:27.887Z,101291.84
2022-08-03T16:28:59.707Z,101293.34
2022-08-03T16:31:31.490Z,101291.81
2022-08-03T16:34:00.795Z,101293.75
2022-08-03T16:36:31.739Z,101286.19
2022-08-03T16:39:04.456Z,101291.09
2022-08-03T16:41:54.378Z,101286.03
2022-08-03T16:44:23.601Z,101280.56
2022-08-03T16:46:56.208Z,101292.97
2022-08-03T16:49:53.070Z,101289.88
2022-08-03T16:52:16.853Z,101289.09
2022-08-03T16:54:52.850Z,101291.22
2022-08-03T16:57:58.220Z,101282.28
2022-08-03T17:00:33.601Z,101278.19
2022-08-03T17:03:19.057Z,101285.97
2022-08-03T17:05:53.473Z,101278.19
2022-08-03T17:08:29.006Z,101280.88
2022-08-03T17:10:59.554Z,101282.84
2022-08-03T17:13:39.239Z,101275.63
2022-08-03T17:16:15.139Z,101280.44
2022-08-03T17:18:58.172Z,101275.03
2022-08-03T17:21:34.289Z,101274.81
2022-08-03T17:24:20.924Z,101276.88
2022-08-03T17:26:52.764Z,101271.22
2022-08-03T17:29:25.195Z,101275.28
2022-08-03T17:31:59.317Z,101276.44
2022-08-03T17:34:28.664Z,101269.00
2022-08-03T17:37:04.103Z,101283.19
2022-08-03T17:40:00.487Z,101276.31
2022-08-03T17:42:29.630Z,101275.47
2022-08-03T17:45:03.525Z,101278.75
2022-08-03T17:47:42.578Z,101266.84
2022-08-03T17:50:24.275Z,101269.19
2022-08-03T17:53:07.125Z,101277.72
2022-08-03T17:55:57.653Z,101268.34
2022-08-03T17:58:44.901Z,101278.41
2022-08-03T18:02:03.589Z,101275.22
2022-08-03T18:04:30.922Z,101265.63
2022-08-03T18:07:11.056Z,101269.63
2022-08-03T18:12:51.841Z,101263.84
2022-08-03T18:15:32.843Z,101260.13
2022-08-03T18:18:11.258Z,101269.44
2022-08-03T18:20:45.523Z,101272.06
2022-08-03T18:26:11.904Z,101264.09
2022-08-03T18:28:42.020Z,101269.06
2022-08-03T18:31:59.803Z,101263.94
2022-08-03T18:34:18.878Z,101264.59
2022-08-03T18:36:58.811Z,101261.25
2022-08-03T18:39:29.636Z,101265.50
2022-08-03T18:41:58.975Z,101262.00
2022-08-03T18:44:45.598Z,101259.78
2022-08-03T18:47:20.780Z,101265.38
2022-08-03T18:50:08.321Z,101252.84
2022-08-03T18:52:52.934Z,101247.69
2022-08-03T18:55:33.782Z,101251.03
2022-08-03T18:58:18.138Z,101259.09
2022-08-03T19:01:00.059Z,101251.38
2022-08-03T19:03:43.142Z,101249.50
2022-08-03T19:06:19.782Z,101256.31
2022-08-03T19:08:58.290Z,101263.59
2022-08-03T19:12:22.459Z,101266.22
2022-08-03T19:14:57.232Z,101262.25
2022-08-03T19:17:29.496Z,101254.06
2022-08-03T19:20:01.586Z,101271.13
2022-08-03T19:22:31.743Z,101271.38
2022-08-03T19:25:03.955Z,101265.75
2022-08-03T19:27:36.284Z,101261.78
2022-08-03T19:30:21.915Z,101274.31
2022-08-03T19:32:56.630Z,101276.81
2022-08-03T19:38:27.432Z,101275.19
2022-08-03T19:40:59.942Z,101272.94
2022-08-03T19:43:33.047Z,101288.34
2022-08-03T19:46:20.238Z,101284.59
2022-08-03T19:48:58.352Z,101286.00
2022-08-03T19:52:00.807Z,101284.31
2022-08-03T19:54:29.660Z,101282.63
2022-08-03T19:57:05.045Z,101286.88
2022-08-03T19:59:49.946Z,101278.47
2022-08-03T20:02:26.480Z,101290.41
2022-08-03T20:04:59.770Z,101283.94
2022-08-03T20:07:32.351Z,101292.66
2022-08-03T20:10:04.268Z,101284.81
2022-08-03T20:12:39.371Z,101283.22
2022-08-03T20:15:10.536Z,101288.50
2022-08-03T20:17:55.228Z,101285.41
2022-08-03T20:20:35.204Z,101283.28
2022-08-03T20:23:19.666Z,101278.59
2022-08-03T20:26:00.606Z,101282.03
2022-08-03T20:28:50.505Z,101282.59
2022-08-03T20:31:32.417Z,101276.03
2022-08-03T20:34:06.786Z,101279.53
2022-08-03T20:36:36.269Z,101283.47
2022-08-03T20:39:09.148Z,101277.97
2022-08-03T20:41:39.858Z,101279.34
2022-08-03T20:44:09.475Z,101276.19
2022-08-03T20:46:52.934Z,101286.97
2022-08-03T20:49:28.799Z,101286.25
2022-08-03T20:52:01.125Z,101278.38
2022-08-03T20:54:31.804Z,101285.50
2022-08-03T20:57:07.159Z,101274.22
2022-08-03T20:59:50.308Z,101276.59
2022-08-03T21:02:30.273Z,101277.44
2022-08-03T21:05:08.413Z,101269.81
2022-08-03T21:08:05.983Z,101273.28
2022-08-03T21:10:42.091Z,101276.47
2022-08-03T21:12:57.899Z,101270.78
2022-08-03T21:13:02.506Z,101279.31
2022-08-03T21:13:04.463Z,101268.75
2022-08-03T21:13:18.051Z,101271.25
2022-08-03T21:16:12.512Z,101277.25
2022-08-03T21:18:47.698Z,101267.03
2022-08-03T21:21:20.270Z,101269.16
2022-08-03T21:23:53.672Z,101266.53
2022-08-03T21:26:25.257Z,101267.63
2022-08-03T21:28:56.869Z,101259.00
2022-08-03T21:31:27.228Z,101254.81
2022-08-03T21:34:03.314Z,101257.69
2022-08-03T21:36:35.165Z,101256.13
2022-08-03T21:39:06.137Z,101254.81
2022-08-03T21:41:36.122Z,101256.13
2022-08-03T21:44:05.928Z,101252.19
2022-08-03T21:46:41.868Z,101252.19
2022-08-03T21:50:04.618Z,101250.88
2022-08-03T21:52:06.836Z,101248.78
2022-08-03T21:54:43.569Z,101253.00
2022-08-03T21:57:28.475Z,101258.50
2022-08-03T22:00:09.844Z,101249.59
2022-08-03T22:02:45.529Z,101248.53
2022-08-03T22:05:29.077Z,101246.69
2022-08-03T22:08:12.631Z,101239.63
2022-08-03T22:10:42.287Z,101230.44
2022-08-03T22:13:11.796Z,101241.44
2022-08-03T22:15:43.995Z,101239.09
2022-08-03T22:18:13.744Z,101235.91
2022-08-03T22:20:43.169Z,101232.22
2022-08-03T22:23:16.400Z,101237.72
2022-08-03T22:25:49.545Z,101238.78
2022-08-03T22:28:19.022Z,101235.63
2022-08-03T22:30:50.179Z,101232.19
2022-08-03T22:33:19.655Z,101226.19
2022-08-03T22:35:52.364Z,101229.56
2022-08-03T22:38:21.878Z,101234.84
2022-08-03T22:40:52.375Z,101233.50
2022-08-03T22:43:29.711Z,101237.97
2022-08-03T22:46:10.405Z,101238.44
2022-08-03T22:48:43.065Z,101236.34
2022-08-03T22:51:13.215Z,101232.16
2022-08-03T22:53:43.288Z,101229.53
2022-08-03T22:56:13.022Z,101233.94
2022-08-03T22:58:42.440Z,101234.72
2022-08-03T23:01:14.302Z,101232.63
2022-08-03T23:04:00.129Z,101229.16
2022-08-03T23:06:36.755Z,101226.00
2022-08-03T23:09:15.948Z,101221.31
2022-08-03T23:11:47.308Z,101216.84
2022-08-03T23:14:18.975Z,101217.63
2022-08-03T23:16:49.778Z,101224.44
2022-08-03T23:19:25.170Z,101215.53
2022-08-03T23:22:03.436Z,101216.53
2022-08-03T23:24:38.098Z,101216.78
2022-08-03T23:27:09.490Z,101227.53
2022-08-03T23:29:41.788Z,101224.66
2022-08-03T23:32:11.198Z,101221.50
2022-08-03T23:34:55.078Z,101218.34
2022-08-03T23:37:24.706Z,101222.25
2022-08-03T23:39:55.408Z,101218.09
2022-08-03T23:42:25.987Z,101212.06
2022-08-03T23:45:05.651Z,101209.66
2022-08-03T23:47:46.235Z,101218.81
2022-08-03T23:50:17.003Z,101213.59
2022-08-03T23:53:04.994Z,101206.22
2022-08-03T23:55:40.328Z,101210.72
2022-08-03T23:58:19.842Z,101210.72
